sensor_id;sensor_type;location;lat;lon;timestamp;P1;durP1;ratioP1;P2;durP2;ratioP2
10281;SDS011;5186;59.472;18.048;2024-01-27T00:01:13;1.70;;;0.80;;
10281;SDS011;5186;59.472;18.048;2024-01-27T00:03:39;1.00;;;0.77;;
10281;SDS011;5186;59.472;18.048;2024-01-27T00:06:05;1.37;;;0.90;;
10281;SDS011;5186;59.472;18.048;2024-01-27T00:08:30;0.97;;;0.80;;
10281;SDS011;5186;59.472;18.048;2024-01-27T00:10:56;1.23;;;0.73;;
10281;SDS011;5186;59.472;18.048;2024-01-27T00:13:21;2.53;;;0.90;;
10281;SDS011;5186;59.472;18.048;2024-01-27T00:15:47;1.73;;;0.90;;
10281;SDS011;5186;59.472;18.048;2024-01-27T00:18:13;1.97;;;0.90;;
10281;SDS011;5186;59.472;18.048;2024-01-27T00:20:40;1.03;;;0.87;;
10281;SDS011;5186;59.472;18.048;2024-01-27T00:23:05;2.00;;;0.80;;
10281;SDS011;5186;59.472;18.048;2024-01-27T00:25:31;1.60;;;1.03;;
10281;SDS011;5186;59.472;18.048;2024-01-27T00:27:57;1.83;;;0.93;;
10281;SDS011;5186;59.472;18.048;2024-01-27T00:30:22;1.63;;;1.10;;
10281;SDS011;5186;59.472;18.048;2024-01-27T00:32:48;2.03;;;1.20;;
10281;SDS011;5186;59.472;18.048;2024-01-27T00:35:13;1.00;;;0.90;;
10281;SDS011;5186;59.472;18.048;2024-01-27T00:37:42;2.03;;;1.00;;
10281;SDS011;5186;59.472;18.048;2024-01-27T00:40:08;1.87;;;0.87;;
10281;SDS011;5186;59.472;18.048;2024-01-27T00:42:35;1.37;;;0.83;;
10281;SDS011;5186;59.472;18.048;2024-01-27T00:45:00;2.30;;;1.00;;
10281;SDS011;5186;59.472;18.048;2024-01-27T00:47:26;1.60;;;1.00;;
10281;SDS011;5186;59.472;18.048;2024-01-27T00:49:51;2.70;;;1.03;;
10281;SDS011;5186;59.472;18.048;2024-01-27T00:52:19;1.50;;;0.90;;
10281;SDS011;5186;59.472;18.048;2024-01-27T00:54:44;1.10;;;1.00;;
10281;SDS011;5186;59.472;18.048;2024-01-27T00:57:10;1.87;;;1.20;;
10281;SDS011;5186;59.472;18.048;2024-01-27T00:59:36;2.27;;;1.10;;
10281;SDS011;5186;59.472;18.048;2024-01-27T01:02:01;1.43;;;1.33;;
10281;SDS011;5186;59.472;18.048;2024-01-27T01:04:27;3.73;;;1.60;;
10281;SDS011;5186;59.472;18.048;2024-01-27T01:06:53;1.70;;;1.33;;
10281;SDS011;5186;59.472;18.048;2024-01-27T01:09:18;2.37;;;1.30;;
10281;SDS011;5186;59.472;18.048;2024-01-27T01:11:44;2.37;;;1.10;;
10281;SDS011;5186;59.472;18.048;2024-01-27T01:14:09;3.63;;;1.23;;
10281;SDS011;5186;59.472;18.048;2024-01-27T01:16:35;1.87;;;1.03;;
10281;SDS011;5186;59.472;18.048;2024-01-27T01:19:00;2.43;;;1.10;;
10281;SDS011;5186;59.472;18.048;2024-01-27T01:21:26;1.00;;;0.90;;
10281;SDS011;5186;59.472;18.048;2024-01-27T01:23:53;1.73;;;0.87;;
10281;SDS011;5186;59.472;18.048;2024-01-27T01:26:19;0.80;;;0.80;;
10281;SDS011;5186;59.472;18.048;2024-01-27T01:28:44;0.90;;;0.80;;
10281;SDS011;5186;59.472;18.048;2024-01-27T01:31:10;1.30;;;1.00;;
10281;SDS011;5186;59.472;18.048;2024-01-27T01:33:35;1.40;;;0.90;;
10281;SDS011;5186;59.472;18.048;2024-01-27T01:36:01;1.70;;;1.10;;
10281;SDS011;5186;59.472;18.048;2024-01-27T01:38:26;2.30;;;1.03;;
10281;SDS011;5186;59.472;18.048;2024-01-27T01:40:52;1.83;;;1.00;;
10281;SDS011;5186;59.472;18.048;2024-01-27T01:43:18;1.70;;;0.90;;
10281;SDS011;5186;59.472;18.048;2024-01-27T01:45:43;1.60;;;1.10;;
10281;SDS011;5186;59.472;18.048;2024-01-27T01:48:09;1.53;;;0.97;;
10281;SDS011;5186;59.472;18.048;2024-01-27T01:50:35;1.07;;;0.97;;
10281;SDS011;5186;59.472;18.048;2024-01-27T01:53:01;1.80;;;1.20;;
10281;SDS011;5186;59.472;18.048;2024-01-27T01:55:26;1.67;;;1.03;;
10281;SDS011;5186;59.472;18.048;2024-01-27T01:57:52;1.97;;;1.40;;
10281;SDS011;5186;59.472;18.048;2024-01-27T02:00:18;1.43;;;1.10;;
10281;SDS011;5186;59.472;18.048;2024-01-27T02:02:44;1.30;;;1.20;;
10281;SDS011;5186;59.472;18.048;2024-01-27T02:05:12;2.43;;;1.13;;
10281;SDS011;5186;59.472;18.048;2024-01-27T02:07:39;1.43;;;1.00;;
10281;SDS011;5186;59.472;18.048;2024-01-27T02:10:05;2.00;;;1.37;;
10281;SDS011;5186;59.472;18.048;2024-01-27T02:12:37;1.33;;;1.13;;
10281;SDS011;5186;59.472;18.048;2024-01-27T02:15:03;1.10;;;1.00;;
10281;SDS011;5186;59.472;18.048;2024-01-27T02:17:29;1.07;;;0.97;;
10281;SDS011;5186;59.472;18.048;2024-01-27T02:19:54;1.43;;;1.17;;
10281;SDS011;5186;59.472;18.048;2024-01-27T02:22:20;1.80;;;1.30;;
10281;SDS011;5186;59.472;18.048;2024-01-27T02:24:45;3.43;;;1.50;;
10281;SDS011;5186;59.472;18.048;2024-01-27T02:27:11;1.53;;;1.30;;
10281;SDS011;5186;59.472;18.048;2024-01-27T02:29:37;1.50;;;1.40;;
10281;SDS011;5186;59.472;18.048;2024-01-27T02:32:03;2.27;;;1.90;;
10281;SDS011;5186;59.472;18.048;2024-01-27T02:34:29;1.70;;;1.53;;
10281;SDS011;5186;59.472;18.048;2024-01-27T02:36:54;3.10;;;1.73;;
10281;SDS011;5186;59.472;18.048;2024-01-27T02:39:20;3.20;;;2.30;;
10281;SDS011;5186;59.472;18.048;2024-01-27T02:41:46;2.10;;;1.90;;
10281;SDS011;5186;59.472;18.048;2024-01-27T02:44:12;2.50;;;2.00;;
10281;SDS011;5186;59.472;18.048;2024-01-27T02:46:37;3.00;;;2.00;;
10281;SDS011;5186;59.472;18.048;2024-01-27T02:49:03;2.80;;;2.00;;
10281;SDS011;5186;59.472;18.048;2024-01-27T02:51:29;1.93;;;1.57;;
10281;SDS011;5186;59.472;18.048;2024-01-27T02:53:54;2.57;;;1.83;;
10281;SDS011;5186;59.472;18.048;2024-01-27T02:56:20;2.50;;;1.60;;
10281;SDS011;5186;59.472;18.048;2024-01-27T02:58:45;2.67;;;1.60;;
10281;SDS011;5186;59.472;18.048;2024-01-27T03:01:11;1.60;;;1.50;;
10281;SDS011;5186;59.472;18.048;2024-01-27T03:03:37;2.20;;;1.63;;
10281;SDS011;5186;59.472;18.048;2024-01-27T03:06:02;3.03;;;1.70;;
10281;SDS011;5186;59.472;18.048;2024-01-27T03:08:29;1.80;;;1.30;;
10281;SDS011;5186;59.472;18.048;2024-01-27T03:10:55;1.90;;;1.63;;
10281;SDS011;5186;59.472;18.048;2024-01-27T03:13:20;2.00;;;1.50;;
10281;SDS011;5186;59.472;18.048;2024-01-27T03:15:46;1.90;;;1.23;;
10281;SDS011;5186;59.472;18.048;2024-01-27T03:18:12;1.60;;;1.40;;
10281;SDS011;5186;59.472;18.048;2024-01-27T03:20:37;1.50;;;1.20;;
10281;SDS011;5186;59.472;18.048;2024-01-27T03:23:03;1.40;;;1.10;;
10281;SDS011;5186;59.472;18.048;2024-01-27T03:25:29;2.00;;;1.20;;
10281;SDS011;5186;59.472;18.048;2024-01-27T03:27:54;2.10;;;1.53;;
10281;SDS011;5186;59.472;18.048;2024-01-27T03:30:20;1.30;;;1.20;;
10281;SDS011;5186;59.472;18.048;2024-01-27T03:32:46;1.27;;;1.13;;
10281;SDS011;5186;59.472;18.048;2024-01-27T03:35:11;1.17;;;1.07;;
10281;SDS011;5186;59.472;18.048;2024-01-27T03:37:37;1.20;;;1.03;;
10281;SDS011;5186;59.472;18.048;2024-01-27T03:40:02;0.97;;;0.87;;
10281;SDS011;5186;59.472;18.048;2024-01-27T03:42:29;1.10;;;1.00;;
10281;SDS011;5186;59.472;18.048;2024-01-27T03:44:54;0.80;;;0.80;;
10281;SDS011;5186;59.472;18.048;2024-01-27T03:47:20;0.73;;;0.73;;
10281;SDS011;5186;59.472;18.048;2024-01-27T03:49:46;0.60;;;0.60;;
10281;SDS011;5186;59.472;18.048;2024-01-27T03:52:11;0.60;;;0.60;;
10281;SDS011;5186;59.472;18.048;2024-01-27T03:54:37;0.80;;;0.80;;
10281;SDS011;5186;59.472;18.048;2024-01-27T03:57:03;1.13;;;0.77;;
10281;SDS011;5186;59.472;18.048;2024-01-27T03:59:29;0.70;;;0.70;;
10281;SDS011;5186;59.472;18.048;2024-01-27T04:01:55;0.60;;;0.60;;
10281;SDS011;5186;59.472;18.048;2024-01-27T04:04:20;0.77;;;0.73;;
10281;SDS011;5186;59.472;18.048;2024-01-27T04:06:46;0.97;;;0.83;;
10281;SDS011;5186;59.472;18.048;2024-01-27T04:09:12;0.80;;;0.80;;
10281;SDS011;5186;59.472;18.048;2024-01-27T04:11:38;0.80;;;0.70;;
10281;SDS011;5186;59.472;18.048;2024-01-27T04:14:05;0.73;;;0.73;;
10281;SDS011;5186;59.472;18.048;2024-01-27T04:16:31;0.90;;;0.83;;
10281;SDS011;5186;59.472;18.048;2024-01-27T04:18:57;1.10;;;1.00;;
10281;SDS011;5186;59.472;18.048;2024-01-27T04:21:23;0.93;;;0.90;;
10281;SDS011;5186;59.472;18.048;2024-01-27T04:23:48;1.20;;;1.00;;
10281;SDS011;5186;59.472;18.048;2024-01-27T04:26:14;1.50;;;1.20;;
10281;SDS011;5186;59.472;18.048;2024-01-27T04:28:40;0.90;;;0.80;;
10281;SDS011;5186;59.472;18.048;2024-01-27T04:31:05;1.73;;;1.00;;
10281;SDS011;5186;59.472;18.048;2024-01-27T04:33:31;0.70;;;0.67;;
10281;SDS011;5186;59.472;18.048;2024-01-27T04:35:57;0.80;;;0.80;;
10281;SDS011;5186;59.472;18.048;2024-01-27T04:38:23;0.97;;;0.80;;
10281;SDS011;5186;59.472;18.048;2024-01-27T04:40:49;0.70;;;0.70;;
10281;SDS011;5186;59.472;18.048;2024-01-27T04:43:15;0.77;;;0.77;;
10281;SDS011;5186;59.472;18.048;2024-01-27T04:45:42;0.60;;;0.60;;
10281;SDS011;5186;59.472;18.048;2024-01-27T04:48:07;0.70;;;0.70;;
10281;SDS011;5186;59.472;18.048;2024-01-27T04:50:33;1.60;;;0.73;;
10281;SDS011;5186;59.472;18.048;2024-01-27T04:52:59;1.17;;;0.70;;
10281;SDS011;5186;59.472;18.048;2024-01-27T04:55:25;1.43;;;0.63;;
10281;SDS011;5186;59.472;18.048;2024-01-27T04:57:51;0.70;;;0.70;;
10281;SDS011;5186;59.472;18.048;2024-01-27T05:00:17;1.07;;;0.70;;
10281;SDS011;5186;59.472;18.048;2024-01-27T05:02:42;0.80;;;0.80;;
10281;SDS011;5186;59.472;18.048;2024-01-27T05:05:10;0.93;;;0.60;;
10281;SDS011;5186;59.472;18.048;2024-01-27T05:07:36;0.50;;;0.50;;
10281;SDS011;5186;59.472;18.048;2024-01-27T05:10:03;1.00;;;0.80;;
10281;SDS011;5186;59.472;18.048;2024-01-27T05:12:29;0.80;;;0.77;;
10281;SDS011;5186;59.472;18.048;2024-01-27T05:14:54;0.53;;;0.50;;
10281;SDS011;5186;59.472;18.048;2024-01-27T05:17:20;0.60;;;0.60;;
10281;SDS011;5186;59.472;18.048;2024-01-27T05:19:46;0.70;;;0.70;;
10281;SDS011;5186;59.472;18.048;2024-01-27T05:22:11;0.63;;;0.60;;
10281;SDS011;5186;59.472;18.048;2024-01-27T05:24:37;0.70;;;0.70;;
10281;SDS011;5186;59.472;18.048;2024-01-27T05:27:03;0.77;;;0.77;;
10281;SDS011;5186;59.472;18.048;2024-01-27T05:29:29;0.80;;;0.70;;
10281;SDS011;5186;59.472;18.048;2024-01-27T05:31:54;0.50;;;0.50;;
10281;SDS011;5186;59.472;18.048;2024-01-27T05:34:20;0.60;;;0.60;;
10281;SDS011;5186;59.472;18.048;2024-01-27T05:36:46;0.80;;;0.80;;
10281;SDS011;5186;59.472;18.048;2024-01-27T05:39:13;0.60;;;0.60;;
10281;SDS011;5186;59.472;18.048;2024-01-27T05:41:38;1.07;;;0.80;;
10281;SDS011;5186;59.472;18.048;2024-01-27T05:44:04;0.87;;;0.73;;
10281;SDS011;5186;59.472;18.048;2024-01-27T05:46:30;0.77;;;0.60;;
10281;SDS011;5186;59.472;18.048;2024-01-27T05:48:55;0.83;;;0.70;;
10281;SDS011;5186;59.472;18.048;2024-01-27T05:51:27;0.60;;;0.60;;
10281;SDS011;5186;59.472;18.048;2024-01-27T05:53:53;1.20;;;0.70;;
10281;SDS011;5186;59.472;18.048;2024-01-27T05:56:19;0.80;;;0.60;;
10281;SDS011;5186;59.472;18.048;2024-01-27T05:58:47;1.10;;;0.80;;
10281;SDS011;5186;59.472;18.048;2024-01-27T06:01:13;1.33;;;0.70;;
10281;SDS011;5186;59.472;18.048;2024-01-27T06:03:42;0.97;;;0.87;;
10281;SDS011;5186;59.472;18.048;2024-01-27T06:06:08;0.80;;;0.80;;
10281;SDS011;5186;59.472;18.048;2024-01-27T06:08:34;0.90;;;0.80;;
10281;SDS011;5186;59.472;18.048;2024-01-27T06:11:00;0.80;;;0.80;;
10281;SDS011;5186;59.472;18.048;2024-01-27T06:13:25;0.70;;;0.70;;
10281;SDS011;5186;59.472;18.048;2024-01-27T06:15:51;0.73;;;0.70;;
10281;SDS011;5186;59.472;18.048;2024-01-27T06:18:17;0.93;;;0.90;;
10281;SDS011;5186;59.472;18.048;2024-01-27T06:20:42;2.10;;;0.70;;
10281;SDS011;5186;59.472;18.048;2024-01-27T06:23:08;0.90;;;0.70;;
10281;SDS011;5186;59.472;18.048;2024-01-27T06:25:34;0.60;;;0.60;;
10281;SDS011;5186;59.472;18.048;2024-01-27T06:28:00;0.70;;;0.70;;
10281;SDS011;5186;59.472;18.048;2024-01-27T06:30:25;1.23;;;0.70;;
10281;SDS011;5186;59.472;18.048;2024-01-27T06:32:51;1.43;;;0.70;;
10281;SDS011;5186;59.472;18.048;2024-01-27T06:35:17;0.80;;;0.80;;
10281;SDS011;5186;59.472;18.048;2024-01-27T06:37:42;1.90;;;0.80;;
10281;SDS011;5186;59.472;18.048;2024-01-27T06:40:08;1.03;;;0.67;;
10281;SDS011;5186;59.472;18.048;2024-01-27T06:42:34;1.27;;;0.80;;
10281;SDS011;5186;59.472;18.048;2024-01-27T06:45:00;0.60;;;0.57;;
10281;SDS011;5186;59.472;18.048;2024-01-27T06:47:26;0.83;;;0.73;;
10281;SDS011;5186;59.472;18.048;2024-01-27T06:49:52;0.90;;;0.73;;
10281;SDS011;5186;59.472;18.048;2024-01-27T06:52:17;0.77;;;0.77;;
10281;SDS011;5186;59.472;18.048;2024-01-27T06:54:43;0.70;;;0.70;;
10281;SDS011;5186;59.472;18.048;2024-01-27T06:57:21;0.60;;;0.60;;
10281;SDS011;5186;59.472;18.048;2024-01-27T06:59:48;2.27;;;0.73;;
10281;SDS011;5186;59.472;18.048;2024-01-27T07:02:18;0.73;;;0.73;;
10281;SDS011;5186;59.472;18.048;2024-01-27T07:04:44;0.70;;;0.70;;
10281;SDS011;5186;59.472;18.048;2024-01-27T07:07:10;1.07;;;0.90;;
10281;SDS011;5186;59.472;18.048;2024-01-27T07:09:35;1.03;;;0.80;;
10281;SDS011;5186;59.472;18.048;2024-01-27T07:12:01;1.07;;;0.70;;
10281;SDS011;5186;59.472;18.048;2024-01-27T07:14:27;0.90;;;0.70;;
10281;SDS011;5186;59.472;18.048;2024-01-27T07:16:52;1.23;;;0.70;;
10281;SDS011;5186;59.472;18.048;2024-01-27T07:19:18;0.73;;;0.70;;
10281;SDS011;5186;59.472;18.048;2024-01-27T07:21:44;0.77;;;0.70;;
10281;SDS011;5186;59.472;18.048;2024-01-27T07:24:09;1.10;;;0.70;;
10281;SDS011;5186;59.472;18.048;2024-01-27T07:26:35;1.93;;;0.80;;
10281;SDS011;5186;59.472;18.048;2024-01-27T07:29:00;0.63;;;0.63;;
10281;SDS011;5186;59.472;18.048;2024-01-27T07:31:26;0.57;;;0.57;;
10281;SDS011;5186;59.472;18.048;2024-01-27T07:33:52;1.17;;;0.87;;
10281;SDS011;5186;59.472;18.048;2024-01-27T07:36:18;0.90;;;0.70;;
10281;SDS011;5186;59.472;18.048;2024-01-27T07:38:43;1.27;;;0.80;;
10281;SDS011;5186;59.472;18.048;2024-01-27T07:41:09;0.70;;;0.60;;
10281;SDS011;5186;59.472;18.048;2024-01-27T07:43:34;2.00;;;0.90;;
10281;SDS011;5186;59.472;18.048;2024-01-27T07:46:00;0.87;;;0.70;;
10281;SDS011;5186;59.472;18.048;2024-01-27T07:48:25;1.13;;;0.80;;
10281;SDS011;5186;59.472;18.048;2024-01-27T07:50:51;0.77;;;0.60;;
10281;SDS011;5186;59.472;18.048;2024-01-27T07:53:17;3.70;;;0.90;;
10281;SDS011;5186;59.472;18.048;2024-01-27T07:55:43;1.17;;;0.67;;
10281;SDS011;5186;59.472;18.048;2024-01-27T07:58:08;2.53;;;0.73;;
10281;SDS011;5186;59.472;18.048;2024-01-27T08:00:34;2.73;;;0.80;;
10281;SDS011;5186;59.472;18.048;2024-01-27T08:02:59;2.50;;;0.87;;
10281;SDS011;5186;59.472;18.048;2024-01-27T08:05:25;1.93;;;0.70;;
10281;SDS011;5186;59.472;18.048;2024-01-27T08:07:51;1.27;;;0.67;;
10281;SDS011;5186;59.472;18.048;2024-01-27T08:10:16;0.67;;;0.67;;
10281;SDS011;5186;59.472;18.048;2024-01-27T08:12:42;1.03;;;0.70;;
10281;SDS011;5186;59.472;18.048;2024-01-27T08:15:08;0.73;;;0.70;;
10281;SDS011;5186;59.472;18.048;2024-01-27T08:17:33;1.30;;;0.70;;
10281;SDS011;5186;59.472;18.048;2024-01-27T08:19:59;1.27;;;0.90;;
10281;SDS011;5186;59.472;18.048;2024-01-27T08:22:25;2.73;;;0.77;;
10281;SDS011;5186;59.472;18.048;2024-01-27T08:24:50;1.60;;;0.70;;
10281;SDS011;5186;59.472;18.048;2024-01-27T08:27:16;3.57;;;0.93;;
10281;SDS011;5186;59.472;18.048;2024-01-27T08:29:41;1.57;;;0.67;;
10281;SDS011;5186;59.472;18.048;2024-01-27T08:32:07;2.70;;;0.93;;
10281;SDS011;5186;59.472;18.048;2024-01-27T08:34:32;3.07;;;0.80;;
10281;SDS011;5186;59.472;18.048;2024-01-27T08:37:00;1.30;;;0.70;;
10281;SDS011;5186;59.472;18.048;2024-01-27T08:39:26;3.97;;;0.87;;
10281;SDS011;5186;59.472;18.048;2024-01-27T08:41:52;3.57;;;0.83;;
10281;SDS011;5186;59.472;18.048;2024-01-27T08:44:18;5.37;;;0.90;;
10281;SDS011;5186;59.472;18.048;2024-01-27T08:46:43;2.33;;;0.90;;
10281;SDS011;5186;59.472;18.048;2024-01-27T08:49:09;2.10;;;0.90;;
10281;SDS011;5186;59.472;18.048;2024-01-27T08:51:34;4.67;;;0.90;;
10281;SDS011;5186;59.472;18.048;2024-01-27T08:54:00;1.30;;;0.70;;
10281;SDS011;5186;59.472;18.048;2024-01-27T08:56:26;3.47;;;1.00;;
10281;SDS011;5186;59.472;18.048;2024-01-27T08:58:51;6.53;;;1.03;;
10281;SDS011;5186;59.472;18.048;2024-01-27T09:01:17;4.13;;;0.87;;
10281;SDS011;5186;59.472;18.048;2024-01-27T09:03:43;4.33;;;1.00;;
10281;SDS011;5186;59.472;18.048;2024-01-27T09:06:09;4.37;;;1.10;;
10281;SDS011;5186;59.472;18.048;2024-01-27T09:08:34;3.13;;;1.07;;
10281;SDS011;5186;59.472;18.048;2024-01-27T09:11:03;5.10;;;1.43;;
10281;SDS011;5186;59.472;18.048;2024-01-27T09:13:29;4.53;;;0.90;;
10281;SDS011;5186;59.472;18.048;2024-01-27T09:15:56;4.93;;;1.33;;
10281;SDS011;5186;59.472;18.048;2024-01-27T09:18:22;4.60;;;1.00;;
10281;SDS011;5186;59.472;18.048;2024-01-27T09:20:48;3.50;;;1.00;;
10281;SDS011;5186;59.472;18.048;2024-01-27T09:23:13;5.00;;;1.30;;
10281;SDS011;5186;59.472;18.048;2024-01-27T09:25:39;2.67;;;0.90;;
10281;SDS011;5186;59.472;18.048;2024-01-27T09:28:05;4.83;;;1.00;;
10281;SDS011;5186;59.472;18.048;2024-01-27T09:30:31;3.50;;;1.30;;
10281;SDS011;5186;59.472;18.048;2024-01-27T09:32:56;6.63;;;1.20;;
10281;SDS011;5186;59.472;18.048;2024-01-27T09:35:22;5.77;;;1.20;;
10281;SDS011;5186;59.472;18.048;2024-01-27T09:37:47;3.67;;;1.00;;
10281;SDS011;5186;59.472;18.048;2024-01-27T09:40:13;6.93;;;0.93;;
10281;SDS011;5186;59.472;18.048;2024-01-27T09:42:39;3.37;;;1.10;;
10281;SDS011;5186;59.472;18.048;2024-01-27T09:45:11;3.07;;;0.90;;
10281;SDS011;5186;59.472;18.048;2024-01-27T09:47:37;6.10;;;1.07;;
10281;SDS011;5186;59.472;18.048;2024-01-27T09:50:04;4.03;;;1.30;;
10281;SDS011;5186;59.472;18.048;2024-01-27T09:52:30;3.73;;;1.27;;
10281;SDS011;5186;59.472;18.048;2024-01-27T09:54:56;5.57;;;1.30;;
10281;SDS011;5186;59.472;18.048;2024-01-27T09:57:21;5.70;;;1.23;;
10281;SDS011;5186;59.472;18.048;2024-01-27T09:59:48;7.67;;;1.37;;
10281;SDS011;5186;59.472;18.048;2024-01-27T10:02:15;10.17;;;1.27;;
10281;SDS011;5186;59.472;18.048;2024-01-27T10:04:42;5.67;;;1.30;;
10281;SDS011;5186;59.472;18.048;2024-01-27T10:07:10;4.00;;;1.57;;
10281;SDS011;5186;59.472;18.048;2024-01-27T10:09:36;5.73;;;1.37;;
10281;SDS011;5186;59.472;18.048;2024-01-27T10:12:02;5.50;;;1.17;;
10281;SDS011;5186;59.472;18.048;2024-01-27T10:14:40;6.10;;;1.30;;
10281;SDS011;5186;59.472;18.048;2024-01-27T10:17:10;6.33;;;1.47;;
10281;SDS011;5186;59.472;18.048;2024-01-27T10:19:37;5.97;;;1.13;;
10281;SDS011;5186;59.472;18.048;2024-01-27T10:22:03;4.00;;;1.03;;
10281;SDS011;5186;59.472;18.048;2024-01-27T10:24:28;3.90;;;0.90;;
10281;SDS011;5186;59.472;18.048;2024-01-27T10:27:02;3.83;;;1.00;;
10281;SDS011;5186;59.472;18.048;2024-01-27T10:29:28;5.87;;;1.30;;
10281;SDS011;5186;59.472;18.048;2024-01-27T10:31:54;2.93;;;1.13;;
10281;SDS011;5186;59.472;18.048;2024-01-27T10:34:20;6.13;;;1.00;;
10281;SDS011;5186;59.472;18.048;2024-01-27T10:36:45;3.90;;;1.30;;
10281;SDS011;5186;59.472;18.048;2024-01-27T10:39:20;6.33;;;1.40;;
10281;SDS011;5186;59.472;18.048;2024-01-27T10:41:47;8.10;;;1.00;;
10281;SDS011;5186;59.472;18.048;2024-01-27T10:44:15;3.23;;;1.30;;
10281;SDS011;5186;59.472;18.048;2024-01-27T10:46:45;3.80;;;1.07;;
10281;SDS011;5186;59.472;18.048;2024-01-27T10:49:12;6.40;;;1.20;;
10281;SDS011;5186;59.472;18.048;2024-01-27T10:51:43;5.27;;;1.20;;
10281;SDS011;5186;59.472;18.048;2024-01-27T10:54:12;4.57;;;1.17;;
10281;SDS011;5186;59.472;18.048;2024-01-27T10:56:40;5.00;;;1.40;;
10281;SDS011;5186;59.472;18.048;2024-01-27T10:59:09;5.33;;;1.07;;
10281;SDS011;5186;59.472;18.048;2024-01-27T11:01:36;4.83;;;0.90;;
10281;SDS011;5186;59.472;18.048;2024-01-27T11:04:05;5.80;;;1.27;;
10281;SDS011;5186;59.472;18.048;2024-01-27T11:06:32;3.60;;;0.90;;
10281;SDS011;5186;59.472;18.048;2024-01-27T11:09:00;5.47;;;1.20;;
10281;SDS011;5186;59.472;18.048;2024-01-27T11:11:29;3.40;;;1.10;;
10281;SDS011;5186;59.472;18.048;2024-01-27T11:13:56;4.33;;;1.20;;
10281;SDS011;5186;59.472;18.048;2024-01-27T11:16:22;8.80;;;1.30;;
10281;SDS011;5186;59.472;18.048;2024-01-27T11:18:48;5.07;;;1.30;;
10281;SDS011;5186;59.472;18.048;2024-01-27T11:21:17;8.10;;;1.50;;
10281;SDS011;5186;59.472;18.048;2024-01-27T11:23:42;3.90;;;1.03;;
10281;SDS011;5186;59.472;18.048;2024-01-27T11:26:10;6.80;;;0.87;;
10281;SDS011;5186;59.472;18.048;2024-01-27T11:28:39;6.33;;;1.13;;
10281;SDS011;5186;59.472;18.048;2024-01-27T11:31:06;8.70;;;2.10;;
10281;SDS011;5186;59.472;18.048;2024-01-27T11:33:32;3.80;;;0.87;;
10281;SDS011;5186;59.472;18.048;2024-01-27T11:36:02;6.03;;;1.13;;
10281;SDS011;5186;59.472;18.048;2024-01-27T11:38:30;3.07;;;1.00;;
10281;SDS011;5186;59.472;18.048;2024-01-27T11:40:56;4.30;;;1.17;;
10281;SDS011;5186;59.472;18.048;2024-01-27T11:43:22;5.30;;;0.90;;
10281;SDS011;5186;59.472;18.048;2024-01-27T11:46:00;6.67;;;1.27;;
10281;SDS011;5186;59.472;18.048;2024-01-27T11:48:26;6.57;;;1.00;;
10281;SDS011;5186;59.472;18.048;2024-01-27T11:51:05;6.03;;;1.03;;
10281;SDS011;5186;59.472;18.048;2024-01-27T11:53:33;6.47;;;0.90;;
10281;SDS011;5186;59.472;18.048;2024-01-27T11:55:59;5.33;;;1.13;;
10281;SDS011;5186;59.472;18.048;2024-01-27T11:58:26;5.17;;;1.00;;
10281;SDS011;5186;59.472;18.048;2024-01-27T12:00:51;5.10;;;1.00;;
10281;SDS011;5186;59.472;18.048;2024-01-27T12:03:17;3.30;;;0.87;;
10281;SDS011;5186;59.472;18.048;2024-01-27T12:05:43;5.17;;;1.17;;
10281;SDS011;5186;59.472;18.048;2024-01-27T12:08:09;4.43;;;1.33;;
10281;SDS011;5186;59.472;18.048;2024-01-27T12:10:35;4.33;;;1.10;;
10281;SDS011;5186;59.472;18.048;2024-01-27T12:13:01;4.20;;;1.03;;
10281;SDS011;5186;59.472;18.048;2024-01-27T12:15:26;4.33;;;1.00;;
10281;SDS011;5186;59.472;18.048;2024-01-27T12:58:47;3.50;;;1.50;;
10281;SDS011;5186;59.472;18.048;2024-01-27T13:01:13;6.87;;;2.37;;
10281;SDS011;5186;59.472;18.048;2024-01-27T13:03:39;6.73;;;1.20;;
10281;SDS011;5186;59.472;18.048;2024-01-27T13:06:04;6.87;;;1.10;;
10281;SDS011;5186;59.472;18.048;2024-01-27T13:08:30;5.53;;;1.10;;
10281;SDS011;5186;59.472;18.048;2024-01-27T13:10:56;2.03;;;0.80;;
10281;SDS011;5186;59.472;18.048;2024-01-27T13:13:22;4.43;;;1.10;;
10281;SDS011;5186;59.472;18.048;2024-01-27T13:15:47;5.10;;;1.10;;
10281;SDS011;5186;59.472;18.048;2024-01-27T13:18:13;2.87;;;1.23;;
10281;SDS011;5186;59.472;18.048;2024-01-27T13:20:38;7.37;;;1.63;;
10281;SDS011;5186;59.472;18.048;2024-01-27T13:23:05;2.93;;;0.93;;
10281;SDS011;5186;59.472;18.048;2024-01-27T13:25:31;3.77;;;1.20;;
10281;SDS011;5186;59.472;18.048;2024-01-27T13:27:57;3.20;;;1.10;;
10281;SDS011;5186;59.472;18.048;2024-01-27T13:30:23;4.70;;;1.10;;
10281;SDS011;5186;59.472;18.048;2024-01-27T13:32:49;5.97;;;1.43;;
10281;SDS011;5186;59.472;18.048;2024-01-27T13:35:14;4.67;;;1.20;;
10281;SDS011;5186;59.472;18.048;2024-01-27T13:37:40;3.87;;;1.50;;
10281;SDS011;5186;59.472;18.048;2024-01-27T13:40:07;4.23;;;2.00;;
10281;SDS011;5186;59.472;18.048;2024-01-27T13:42:36;8.53;;;1.90;;
10281;SDS011;5186;59.472;18.048;2024-01-27T13:45:02;8.33;;;1.30;;
10281;SDS011;5186;59.472;18.048;2024-01-27T13:47:28;6.93;;;1.50;;
10281;SDS011;5186;59.472;18.048;2024-01-27T13:49:54;5.07;;;1.40;;
10281;SDS011;5186;59.472;18.048;2024-01-27T13:52:21;5.17;;;1.60;;
10281;SDS011;5186;59.472;18.048;2024-01-27T13:54:46;4.93;;;1.70;;
10281;SDS011;5186;59.472;18.048;2024-01-27T13:57:12;3.20;;;1.43;;
10281;SDS011;5186;59.472;18.048;2024-01-27T13:59:40;5.07;;;1.40;;
10281;SDS011;5186;59.472;18.048;2024-01-27T14:02:05;7.53;;;1.80;;
10281;SDS011;5186;59.472;18.048;2024-01-27T14:04:31;3.67;;;1.47;;
10281;SDS011;5186;59.472;18.048;2024-01-27T14:06:57;2.63;;;1.40;;
10281;SDS011;5186;59.472;18.048;2024-01-27T14:09:23;4.07;;;1.30;;
10281;SDS011;5186;59.472;18.048;2024-01-27T14:11:48;4.63;;;1.60;;
10281;SDS011;5186;59.472;18.048;2024-01-27T14:14:14;3.53;;;1.10;;
10281;SDS011;5186;59.472;18.048;2024-01-27T14:16:43;2.80;;;1.47;;
10281;SDS011;5186;59.472;18.048;2024-01-27T14:19:10;5.13;;;2.30;;
10281;SDS011;5186;59.472;18.048;2024-01-27T14:21:36;6.63;;;2.20;;
10281;SDS011;5186;59.472;18.048;2024-01-27T14:24:02;5.63;;;2.10;;
10281;SDS011;5186;59.472;18.048;2024-01-27T14:26:30;6.20;;;2.27;;
10281;SDS011;5186;59.472;18.048;2024-01-27T14:28:56;7.13;;;2.50;;
10281;SDS011;5186;59.472;18.048;2024-01-27T14:31:22;3.93;;;1.67;;
10281;SDS011;5186;59.472;18.048;2024-01-27T14:33:48;6.20;;;1.83;;
10281;SDS011;5186;59.472;18.048;2024-01-27T14:36:14;8.80;;;2.30;;
10281;SDS011;5186;59.472;18.048;2024-01-27T14:38:40;4.17;;;1.80;;
10281;SDS011;5186;59.472;18.048;2024-01-27T14:41:06;6.67;;;2.07;;
10281;SDS011;5186;59.472;18.048;2024-01-27T14:43:32;4.80;;;2.07;;
10281;SDS011;5186;59.472;18.048;2024-01-27T14:45:58;5.30;;;1.97;;
10281;SDS011;5186;59.472;18.048;2024-01-27T14:48:24;5.47;;;2.00;;
10281;SDS011;5186;59.472;18.048;2024-01-27T14:50:50;6.47;;;2.00;;
10281;SDS011;5186;59.472;18.048;2024-01-27T14:53:24;5.93;;;1.90;;
10281;SDS011;5186;59.472;18.048;2024-01-27T14:55:53;4.53;;;2.00;;
10281;SDS011;5186;59.472;18.048;2024-01-27T14:58:20;4.40;;;1.97;;
10281;SDS011;5186;59.472;18.048;2024-01-27T15:00:46;6.27;;;1.97;;
10281;SDS011;5186;59.472;18.048;2024-01-27T15:03:19;4.50;;;1.90;;
10281;SDS011;5186;59.472;18.048;2024-01-27T15:05:45;6.70;;;1.90;;
10281;SDS011;5186;59.472;18.048;2024-01-27T15:08:12;6.23;;;2.03;;
10281;SDS011;5186;59.472;18.048;2024-01-27T15:10:37;7.23;;;2.13;;
10281;SDS011;5186;59.472;18.048;2024-01-27T15:13:04;3.17;;;1.53;;
10281;SDS011;5186;59.472;18.048;2024-01-27T15:15:31;5.57;;;2.00;;
10281;SDS011;5186;59.472;18.048;2024-01-27T15:17:56;5.67;;;1.90;;
10281;SDS011;5186;59.472;18.048;2024-01-27T15:20:25;6.43;;;2.10;;
10281;SDS011;5186;59.472;18.048;2024-01-27T15:22:52;6.27;;;2.17;;